Time;durP1;ratioP1;P1;durP2;ratioP2;P2;SDS_P1;SDS_P2;PMS_P1;PMS_P2;Temp;Humidity;BMP_temperature;BMP_pressure;BME280_temperature;BME280_humidity;BME280_pressure;Samples;Min_cycle;Max_cycle;Signal;HPM_P1;HPM_P2
2021/08/04 10:26:58;;;;;;;20.37;6.60;;;;;;;29.61;42.13;97168.42;127163;1092;62886;-66
2021/08/04 10:29:25;;;;;;;13.97;7.10;;;;;;;31.16;39.01;97165.45;126991;1095;62664;-66
2021/08/04 10:31:52;;;;;;;13.00;6.20;;;;;;;32.54;36.39;97164.48;127099;1095;62613;-70
2021/08/04 10:34:25;;;;;;;21.17;6.77;;;;;;;33.44;34.69;97165.61;126951;1095;62632;-67
2021/08/04 10:36:52;;;;;;;14.97;6.93;;;;;;;33.97;33.31;97163.77;127240;1095;62594;-67
2021/08/04 10:39:19;;;;;;;16.60;6.10;;;;;;;33.65;32.83;97162.88;127248;1095;62665;-68
2021/08/04 10:42:07;;;;;;;14.20;7.80;;;;;;;33.20;32.46;97170.98;127159;1095;62610;-67
2021/08/04 10:44:34;;;;;;;13.45;6.00;;;;;;;32.64;33.07;97181.70;127138;1095;62639;-70
2021/08/04 10:47:04;;;;;;;10.57;5.30;;;;;;;32.56;33.10;97173.23;127036;1093;62612;-69
2021/08/04 10:49:33;;;;;;;12.63;5.48;;;;;;;33.36;32.76;97177.22;127165;1093;62601;-69
2021/08/04 10:52:00;;;;;;;13.40;5.03;;;;;;;34.91;30.30;97166.17;127171;1093;62591;-69
2021/08/04 10:54:30;;;;;;;11.67;5.27;;;;;;;36.31;28.62;97171.83;126940;1095;62717;-68
2021/08/04 10:56:57;;;;;;;12.27;5.40;;;;;;;37.74;26.42;97163.95;126924;1095;62623;-77
2021/08/04 10:59:30;;;;;;;10.75;5.25;;;;;;;39.31;25.00;97163.81;126930;1093;62693;-72
2021/08/04 11:02:03;;;;;;;17.60;5.83;;;;;;;40.82;23.38;97158.16;126970;1095;62606;-77
2021/08/04 11:04:30;;;;;;;13.07;5.20;;;;;;;41.81;21.67;97161.72;127015;1095;62732;-79
2021/08/04 11:07:22;;;;;;;9.08;5.13;;;;;;;42.87;20.64;97162.23;126981;1095;62710;-73
2021/08/04 11:09:49;;;;;;;11.20;5.13;;;;;;;43.79;19.87;97154.58;126976;1095;62626;-74
2021/08/04 11:12:17;;;;;;;9.00;4.60;;;;;;;44.23;19.79;97156.05;127083;1093;62632;-77
2021/08/04 11:15:01;;;;;;;9.90;4.75;;;;;;;44.82;17.45;97154.16;126959;1095;62648;-73
2021/08/04 11:17:32;;;;;;;7.98;3.95;;;;;;;45.44;17.50;97149.36;127103;1095;62649;-77
2021/08/04 11:20:04;;;;;;;9.63;4.40;;;;;;;45.89;17.31;97146.82;126980;1095;62575;-76
2021/08/04 11:22:37;;;;;;;8.03;4.40;;;;;;;46.11;16.74;97137.85;127103;1093;62655;-72
2021/08/04 11:25:07;;;;;;;12.25;4.35;;;;;;;46.13;16.75;97138.64;127183;1095;62620;-80
2021/08/04 11:28:15;;;;;;;7.70;4.27;;;;;;;45.90;17.04;97130.76;127247;1095;62641;-82
2021/08/04 11:30:43;;;;;;;10.63;4.43;;;;;;;46.22;16.86;97137.40;127031;1093;62687;-73
2021/08/04 11:33:24;;;;;;;8.03;4.20;;;;;;;46.48;16.56;97137.25;127098;1094;63082;-75
2021/08/04 11:36:17;;;;;;;9.25;4.10;;;;;;;46.46;16.88;97139.40;127095;1095;62559;-71
2021/08/04 11:38:52;;;;;;;10.50;4.43;;;;;;;46.44;16.46;97139.36;126926;1095;62632;-79
2021/08/04 11:41:26;;;;;;;10.70;4.23;;;;;;;46.65;16.27;97126.63;126949;1094;62599;-74
2021/08/04 11:43:59;;;;;;;12.70;4.37;;;;;;;46.75;16.54;97126.11;127070;1093;62676;-79
2021/08/04 11:46:35;;;;;;;8.57;4.27;;;;;;;45.71;16.95;97121.55;126941;1094;62620;-83
2021/08/04 11:49:08;;;;;;;8.65;3.75;;;;;;;44.46;18.59;97112.94;127046;1094;62639;-71
2021/08/04 11:51:37;;;;;;;11.13;4.33;;;;;;;43.38;19.75;97113.14;127182;1093;62629;-74
2021/08/04 11:54:04;;;;;;;10.57;4.00;;;;;;;42.59;20.70;97119.02;127019;1095;62980;-75
2021/08/04 11:56:32;;;;;;;14.80;4.30;;;;;;;41.71;21.49;97122.80;127057;1094;62608;-73
2021/08/04 11:59:03;;;;;;;11.33;4.00;;;;;;;40.93;22.26;97112.90;127152;1095;62630;-82
2021/08/04 12:01:31;;;;;;;12.30;4.47;;;;;;;40.53;21.99;97106.76;127093;1094;62623;-78
2021/08/04 12:04:12;;;;;;;7.45;4.10;;;;;;;40.23;22.91;97111.91;127072;1095;62607;-80
2021/08/04 12:06:40;;;;;;;9.45;3.85;;;;;;;39.56;23.79;97120.24;126989;1093;62591;-70
2021/08/04 12:09:24;;;;;;;7.53;3.98;;;;;;;38.59;23.91;97116.64;127023;1095;62693;-74
2021/08/04 12:11:51;;;;;;;6.95;3.90;;;;;;;37.83;25.16;97116.79;127153;1095;62725;-77
2021/08/04 12:14:20;;;;;;;8.45;3.80;;;;;;;37.83;25.08;97108.13;127040;1095;62626;-76
2021/08/04 12:16:49;;;;;;;9.83;4.10;;;;;;;38.06;24.70;97122.45;127090;1095;62655;-73
2021/08/04 12:19:29;;;;;;;;;;;;;;;38.08;24.49;97113.89;126934;1095;62631;-74
2021/08/04 12:21:56;;;;;;;8.47;3.90;;;;;;;37.70;24.99;97111.67;127095;1094;62668;-73
2021/08/04 12:24:23;;;;;;;6.48;3.53;;;;;;;37.90;24.59;97112.88;126971;1095;62694;-78
2021/08/04 12:26:50;;;;;;;9.30;3.68;;;;;;;38.35;24.46;97103.78;126981;1095;62623;-74
2021/08/04 12:29:23;;;;;;;9.00;3.50;;;;;;;38.77;23.45;97111.09;126989;1095;62676;-72
2021/08/04 12:32:17;;;;;;;7.40;3.50;;;;;;;39.39;22.70;97104.17;127092;1095;62632;-73
2021/08/04 12:35:01;;;;;;;5.03;3.20;;;;;;;40.42;21.76;97101.92;127130;1095;63022;-72
2021/08/04 12:37:29;;;;;;;7.30;3.18;;;;;;;41.26;20.65;97100.56;127069;1095;62584;-74
2021/08/04 12:40:09;;;;;;;7.28;3.30;;;;;;;41.91;20.56;97114.89;127053;1095;62623;-75
2021/08/04 12:42:37;;;;;;;7.00;3.40;;;;;;;42.54;19.32;97105.72;126980;1095;62623;-83
2021/08/04 12:45:24;;;;;;;6.70;3.40;;;;;;;43.05;19.26;97110.50;126911;1095;62626;-71
2021/08/04 12:47:59;;;;;;;6.68;3.55;;;;;;;43.56;18.02;97098.44;126957;1095;62614;-72
2021/08/04 12:50:28;;;;;;;5.78;3.23;;;;;;;42.91;18.30;97112.90;127002;1095;62701;-70
2021/08/04 12:52:56;;;;;;;6.30;3.10;;;;;;;41.54;19.25;97101.75;127157;1095;62679;-74
2021/08/04 12:55:23;;;;;;;4.40;3.05;;;;;;;40.53;20.13;97106.02;127050;1095;62650;-82
2021/08/04 12:58:01;;;;;;;10.50;3.10;;;;;;;40.18;20.92;97092.80;127005;1093;62670;-70
2021/08/04 13:00:30;;;;;;;7.65;3.70;;;;;;;39.99;21.91;97099.14;126925;1095;62727;-70
2021/08/04 13:02:57;;;;;;;5.63;3.10;;;;;;;39.84;21.09;97104.23;127044;1095;62996;-69
2021/08/04 13:05:24;;;;;;;7.83;3.40;;;;;;;40.21;20.81;97094.38;126940;1094;62648;-75
2021/08/04 13:07:52;;;;;;;6.20;3.30;;;;;;;40.69;20.73;97098.04;127072;1095;62623;-71
2021/08/04 13:10:39;;;;;;;4.67;3.10;;;;;;;40.95;20.20;97099.24;127043;1093;62826;-77
2021/08/04 13:13:07;;;;;;;4.38;3.05;;;;;;;41.26;19.67;97109.27;126898;1093;62678;-71
2021/08/04 13:15:44;;;;;;;5.23;2.88;;;;;;;41.66;18.81;97097.89;126984;1095;62756;-71
2021/08/04 13:18:11;;;;;;;5.77;3.03;;;;;;;42.01;18.46;97099.98;126936;1095;62628;-71
2021/08/04 13:20:39;;;;;;;9.60;3.20;;;;;;;42.33;18.40;97091.80;127025;1095;62655;-70
2021/08/04 13:23:07;;;;;;;7.67;3.07;;;;;;;42.55;17.94;97095.56;126843;1094;62630;-72
2021/08/04 13:25:44;;;;;;;7.83;3.43;;;;;;;42.70;18.12;97088.85;127053;1095;62620;-71
2021/08/04 13:28:15;;;;;;;10.00;3.33;;;;;;;42.81;18.34;97087.06;127011;1093;62752;-72
2021/08/04 13:30:49;;;;;;;5.47;3.20;;;;;;;42.34;18.00;97093.30;127116;1094;62684;-70
2021/08/04 13:33:24;;;;;;;6.30;3.10;;;;;;;42.34;17.70;97096.20;127138;1093;63063;-79
2021/08/04 13:35:53;;;;;;;5.27;2.87;;;;;;;42.31;17.34;97098.30;126923;1095;62616;-77
2021/08/04 13:38:20;;;;;;;5.73;2.80;;;;;;;42.52;17.12;97102.73;126933;1094;62615;-74
2021/08/04 13:40:47;;;;;;;8.70;2.78;;;;;;;42.77;17.85;97102.23;127052;1093;62575;-72
2021/08/04 13:43:14;;;;;;;5.45;2.70;;;;;;;42.91;17.19;97101.25;127025;1095;62609;-73
2021/08/04 13:45:41;;;;;;;2.80;2.20;;;;;;;42.63;17.49;97100.95;127092;1095;62620;-72
2021/08/04 13:48:08;;;;;;;4.50;2.70;;;;;;;41.85;21.54;97097.95;127073;1095;62643;-73
2021/08/04 13:50:35;;;;;;;4.83;2.90;;;;;;;40.90;20.92;97091.75;126907;1094;63015;-73
2021/08/04 13:53:02;;;;;;;4.18;2.70;;;;;;;40.02;19.81;97089.14;127021;1095;62608;-70
2021/08/04 13:55:31;;;;;;;8.70;3.10;;;;;;;39.15;23.33;97080.55;126912;1094;62623;-73
2021/08/04 13:57:58;;;;;;;4.55;2.85;;;;;;;38.28;23.69;97081.72;126929;1095;62633;-73
2021/08/04 14:00:26;;;;;;;5.35;2.75;;;;;;;37.72;23.19;97074.27;127071;1093;62667;-74
2021/08/04 14:02:53;;;;;;;4.68;2.80;;;;;;;37.56;23.47;97085.64;126911;1095;62649;-73
2021/08/04 14:05:20;;;;;;;4.13;2.60;;;;;;;38.16;24.06;97081.77;126974;1095;62854;-74
2021/08/04 14:07:48;;;;;;;3.85;2.70;;;;;;;39.01;24.25;97079.05;126920;1095;62652;-77
2021/08/04 14:10:20;;;;;;;5.05;2.80;;;;;;;39.70;22.67;97076.73;126938;1093;63025;-75
2021/08/04 14:12:47;;;;;;;6.70;3.00;;;;;;;40.29;21.77;97083.17;126911;1094;62623;-72
2021/08/04 14:15:16;;;;;;;6.38;2.40;;;;;;;40.73;21.62;97084.45;126931;1094;62620;-70
2021/08/04 14:17:43;;;;;;;4.15;2.93;;;;;;;41.04;22.18;97095.27;127089;1095;62706;-70
2021/08/04 14:20:10;;;;;;;4.43;2.55;;;;;;;40.81;22.22;97078.27;126902;1095;62624;-71
2021/08/04 14:22:37;;;;;;;3.65;2.55;;;;;;;39.73;22.58;97066.73;126918;1095;62623;-72
2021/08/04 14:25:05;;;;;;;4.40;2.75;;;;;;;38.64;23.42;97066.34;126881;1095;62703;-72
2021/08/04 14:27:33;;;;;;;4.70;2.73;;;;;;;37.57;25.18;97071.95;126917;1095;62649;-71
2021/08/04 14:30:00;;;;;;;5.38;3.08;;;;;;;36.75;26.10;97075.06;127031;1095;62766;-71
2021/08/04 14:32:27;;;;;;;3.00;2.60;;;;;;;36.03;26.78;97067.79;126918;1093;62588;-73
2021/08/04 14:34:54;;;;;;;3.80;2.70;;;;;;;35.59;27.61;97068.57;126962;1095;62572;-71
2021/08/04 14:37:21;;;;;;;7.70;3.00;;;;;;;35.47;27.62;97064.14;126998;1095;62601;-74
2021/08/04 14:39:48;;;;;;;7.28;2.95;;;;;;;35.94;26.95;97060.03;127152;1093;62670;-71
2021/08/04 14:42:15;;;;;;;10.75;6.05;;;;;;;36.45;27.28;97062.45;127025;1095;62682;-70
2021/08/04 14:44:42;;;;;;;6.08;4.25;;;;;;;36.68;26.41;97059.53;126934;1093;62623;-68
2021/08/04 14:47:09;;;;;;;6.20;4.40;;;;;;;36.72;26.62;97056.88;127174;1093;62639;-69
2021/08/04 14:49:36;;;;;;;6.80;4.10;;;;;;;36.65;26.36;97052.14;127028;1095;62585;-73
2021/08/04 14:52:03;;;;;;;4.85;2.70;;;;;;;36.60;26.56;97048.24;127077;1095;62668;-74
2021/08/04 14:54:30;;;;;;;4.55;3.03;;;;;;;36.56;26.85;97050.14;127068;1095;62681;-74
2021/08/04 14:56:57;;;;;;;4.10;2.78;;;;;;;36.46;26.57;97052.42;127102;1095;62706;-72
2021/08/04 14:59:24;;;;;;;7.73;2.93;;;;;;;36.31;26.80;97051.55;126935;1095;62628;-72
2021/08/04 15:01:51;;;;;;;4.33;3.10;;;;;;;36.16;27.26;97046.26;126935;1093;62683;-71
2021/08/04 15:04:18;;;;;;;3.83;2.88;;;;;;;35.89;27.81;97057.50;127077;1095;62541;-83
2021/08/04 15:06:45;;;;;;;3.25;2.70;;;;;;;35.53;27.62;97048.00;127163;1095;62645;-69
2021/08/04 15:09:12;;;;;;;6.33;2.60;;;;;;;35.27;27.68;97040.52;127119;1095;62639;-70
2021/08/04 15:11:39;;;;;;;5.33;3.07;;;;;;;34.96;27.17;97041.39;126946;1095;62589;-69
2021/08/04 15:14:07;;;;;;;6.67;3.20;;;;;;;34.61;28.41;97046.16;126945;1095;62594;-68
2021/08/04 15:16:35;;;;;;;3.33;2.70;;;;;;;34.19;29.16;97044.70;126994;1093;62623;-69
2021/08/04 15:19:03;;;;;;;6.00;2.90;;;;;;;33.76;29.53;97040.94;126961;1095;62627;-72
2021/08/04 15:21:30;;;;;;;4.15;2.90;;;;;;;33.22;29.75;97036.33;127124;1095;62622;-68
2021/08/04 15:23:57;;;;;;;5.80;2.80;;;;;;;32.68;30.88;97044.45;127012;1093;62645;-83
2021/08/04 15:26:24;;;;;;;4.83;3.20;;;;;;;32.19;32.10;97045.66;127104;1093;62632;-67
2021/08/04 15:28:51;;;;;;;4.03;3.13;;;;;;;31.72;32.52;97047.69;127059;1095;62626;-68
2021/08/04 15:31:18;;;;;;;4.20;2.90;;;;;;;31.23;32.49;97041.66;127106;1093;62722;-70
2021/08/04 15:33:45;;;;;;;6.13;3.05;;;;;;;30.82;32.21;97043.27;126960;1095;62690;-84
2021/08/04 15:36:12;;;;;;;7.35;3.10;;;;;;;30.47;32.21;97039.60;126927;1095;62575;-78
2021/08/04 15:38:41;;;;;;;5.57;3.30;;;;;;;30.16;32.84;97033.41;126906;1095;62623;-78
2021/08/04 15:41:08;;;;;;;4.47;3.00;;;;;;;29.87;33.13;97035.14;126980;1095;62572;-72
2021/08/04 15:43:36;;;;;;;7.05;3.65;;;;;;;29.58;33.31;97031.91;126898;1095;62731;-75
2021/08/04 15:46:03;;;;;;;5.95;3.45;;;;;;;29.32;34.64;97027.47;126998;1095;62596;-66
2021/08/04 15:48:31;;;;;;;6.00;3.47;;;;;;;29.10;35.08;97041.27;126918;1095;62643;-69
2021/08/04 15:50:58;;;;;;;8.10;3.63;;;;;;;28.90;35.17;97030.86;126865;1093;62622;-82
2021/08/04 15:53:26;;;;;;;5.95;3.40;;;;;;;28.67;35.31;97033.00;126895;1095;62639;-75
2021/08/04 15:55:53;;;;;;;8.90;3.70;;;;;;;28.46;36.06;97031.15;126913;1095;62731;-68
2021/08/04 15:58:20;;;;;;;6.45;3.60;;;;;;;28.27;36.38;97042.19;126970;1095;62642;-70
2021/08/04 16:00:47;;;;;;;5.90;3.67;;;;;;;28.11;35.61;97037.80;127061;1093;62650;-68
2021/08/04 16:03:14;;;;;;;13.97;4.10;;;;;;;27.93;36.64;97036.84;127002;1095;62615;-74
2021/08/04 16:05:41;;;;;;;6.80;3.50;;;;;;;27.72;36.40;97039.86;127099;1093;62789;-70
2021/08/04 16:08:08;;;;;;;7.20;3.70;;;;;;;27.61;37.26;97045.88;126953;1093;62658;-69
2021/08/04 16:10:35;;;;;;;4.83;3.50;;;;;;;27.50;36.96;97043.41;127103;1095;62654;-69
2021/08/04 16:13:03;;;;;;;9.80;4.07;;;;;;;27.36;38.01;97043.55;127152;1094;62596;-81
2021/08/04 16:15:29;;;;;;;6.47;3.90;;;;;;;27.22;38.66;97045.02;126931;1095;62712;-68
2021/08/04 16:17:56;;;;;;;7.63;4.53;;;;;;;27.10;39.46;97043.82;126896;1095;62623;-72
2021/08/04 16:20:23;;;;;;;7.70;3.70;;;;;;;26.95;39.25;97040.91;127013;1095;62611;-67
2021/08/04 16:22:50;;;;;;;5.70;3.70;;;;;;;26.82;39.73;97046.71;126930;1095;62632;-67
2021/08/04 16:25:17;;;;;;;7.50;4.17;;;;;;;26.69;40.22;97051.18;127008;1095;62626;-71
2021/08/04 16:27:44;;;;;;;9.37;3.60;;;;;;;26.58;40.34;97042.98;126923;1095;62623;-70
2021/08/04 16:30:12;;;;;;;5.87;4.07;;;;;;;26.45;40.54;97040.25;126960;1095;62716;-68
2021/08/04 16:32:39;;;;;;;5.87;3.90;;;;;;;26.33;40.22;97041.83;127030;1095;62643;-71
2021/08/04 16:35:08;;;;;;;7.43;3.50;;;;;;;26.20;40.28;97040.59;126954;1095;62649;-71
2021/08/04 16:37:35;;;;;;;9.07;3.93;;;;;;;26.07;40.43;97037.11;127089;1095;62624;-71
2021/08/04 16:40:03;;;;;;;5.70;3.90;;;;;;;25.93;40.86;97039.27;127017;1095;62920;-68
2021/08/04 16:42:30;;;;;;;6.70;3.80;;;;;;;25.81;40.96;97032.34;127063;1093;62744;-69
2021/08/04 16:44:57;;;;;;;7.47;4.00;;;;;;;25.65;41.66;97037.07;126886;1095;63038;-70
2021/08/04 16:47:25;;;;;;;5.57;4.03;;;;;;;25.52;42.00;97034.31;127089;1095;62571;-67
2021/08/04 16:49:52;;;;;;;5.33;3.80;;;;;;;25.35;41.79;97031.88;127007;1095;62623;-67
2021/08/04 16:52:19;;;;;;;8.50;4.10;;;;;;;25.20;41.78;97031.70;127044;1095;62635;-76
2021/08/04 16:54:46;;;;;;;7.43;3.73;;;;;;;25.06;42.16;97022.47;127066;1095;62710;-73
2021/08/04 16:57:13;;;;;;;6.30;3.70;;;;;;;24.93;42.24;97025.30;127093;1095;62636;-74
2021/08/04 16:59:44;;;;;;;5.57;4.07;;;;;;;24.79;42.91;97033.07;127027;1095;62627;-72
2021/08/04 17:02:12;;;;;;;7.70;4.33;;;;;;;24.68;43.34;97033.29;126982;1095;62575;-75
2021/08/04 17:04:39;;;;;;;8.73;5.10;;;;;;;24.55;43.55;97036.13;127000;1095;62626;-70
2021/08/04 17:07:06;;;;;;;8.67;4.60;;;;;;;24.44;44.08;97047.67;126947;1095;62789;-72
2021/08/04 17:09:33;;;;;;;6.67;4.30;;;;;;;24.36;44.90;97048.31;127120;1093;62652;-74
2021/08/04 17:12:00;;;;;;;10.43;4.80;;;;;;;24.28;44.98;97044.59;127099;1095;62623;-74
2021/08/04 17:14:27;;;;;;;6.63;4.53;;;;;;;24.22;45.61;97045.97;127027;1095;62623;-70
2021/08/04 17:16:54;;;;;;;9.50;4.70;;;;;;;24.15;46.13;97038.91;126902;1095;62626;-70
2021/08/04 17:19:21;;;;;;;7.53;4.50;;;;;;;24.07;46.86;97040.86;126947;1095;62611;-72
2021/08/04 17:21:48;;;;;;;9.23;5.83;;;;;;;23.97;47.69;97040.50;126905;1094;62639;-71
2021/08/04 17:24:15;;;;;;;12.50;5.80;;;;;;;23.85;47.79;97044.81;127018;1095;62611;-70
2021/08/04 17:26:42;;;;;;;9.87;5.73;;;;;;;23.73;48.02;97044.26;126886;1095;62595;-71
2021/08/04 17:29:09;;;;;;;15.47;5.50;;;;;;;23.62;48.63;97038.77;126853;1095;62693;-73
2021/08/04 17:31:36;;;;;;;8.17;4.63;;;;;;;23.48;49.25;97032.27;126872;1094;62642;-74
2021/08/04 17:34:03;;;;;;;8.67;4.80;;;;;;;23.37;49.84;97034.53;126897;1095;62608;-71
2021/08/04 17:36:30;;;;;;;10.47;5.00;;;;;;;23.23;49.62;97036.52;126918;1095;62674;-70
2021/08/04 17:38:57;;;;;;;8.07;4.63;;;;;;;23.11;50.17;97041.55;126873;1095;62676;-70
2021/08/04 17:41:24;;;;;;;9.30;4.50;;;;;;;23.01;50.76;97031.19;126920;1095;62677;-69
2021/08/04 17:43:51;;;;;;;9.17;4.87;;;;;;;22.88;51.05;97038.28;126901;1095;62780;-72
2021/08/04 17:46:18;;;;;;;7.60;4.40;;;;;;;22.77;51.44;97041.20;127009;1095;62626;-74
2021/08/04 17:48:46;;;;;;;9.50;4.85;;;;;;;22.65;51.78;97045.48;126973;1095;62575;-74
2021/08/04 17:51:19;;;;;;;9.60;4.80;;;;;;;22.54;52.33;97046.36;126958;1095;62678;-75
2021/08/04 17:53:49;;;;;;;9.60;6.13;;;;;;;22.42;52.52;97053.41;126923;1095;62748;-74
2021/08/04 17:56:16;;;;;;;;;;;;;;;22.28;52.72;97051.79;127067;1095;62623;-75
2021/08/04 17:58:43;;;;;;;18.40;7.77;;;;;;;22.18;53.29;97047.78;126999;1093;62623;-72
2021/08/04 18:01:10;;;;;;;11.27;7.30;;;;;;;22.09;53.56;97045.33;126947;1095;62690;-75
2021/08/04 18:03:37;;;;;;;13.37;7.77;;;;;;;21.99;54.06;97054.08;126916;1095;62572;-72
2021/08/04 18:06:04;;;;;;;10.77;7.10;;;;;;;21.89;54.21;97050.06;126897;1093;62607;-71
2021/08/04 18:08:31;;;;;;;10.93;6.93;;;;;;;21.83;54.46;97057.05;126995;1095;62860;-74
2021/08/04 18:10:58;;;;;;;12.00;7.83;;;;;;;21.75;54.87;97056.87;126916;1095;62555;-72
2021/08/04 18:13:25;;;;;;;21.97;14.30;;;;;;;21.65;55.25;97066.92;126925;1095;62600;-74
2021/08/04 18:15:52;;;;;;;13.53;10.77;;;;;;;21.55;55.66;97060.10;126989;1095;62608;-75
2021/08/04 18:18:19;;;;;;;13.73;7.67;;;;;;;21.46;56.01;97068.86;126981;1095;62650;-72
2021/08/04 18:20:46;;;;;;;11.43;7.30;;;;;;;21.36;56.38;97074.03;127115;1095;62628;-78
2021/08/04 18:23:13;;;;;;;10.63;6.30;;;;;;;21.29;56.21;97071.78;127104;1095;62575;-76
2021/08/04 18:25:40;;;;;;;10.77;7.37;;;;;;;21.27;56.23;97074.36;126963;1095;63009;-78
2021/08/04 18:28:07;;;;;;;10.77;7.10;;;;;;;21.20;56.78;97081.29;126939;1095;62623;-78
2021/08/04 18:30:34;;;;;;;12.13;7.30;;;;;;;21.11;56.65;97078.77;126856;1095;62622;-77
2021/08/04 18:33:02;;;;;;;16.40;7.73;;;;;;;21.03;57.09;97077.80;126902;1093;62578;-80
2021/08/04 18:35:29;;;;;;;15.43;7.13;;;;;;;20.94;57.13;97089.34;126880;1095;62630;-76
2021/08/04 18:37:56;;;;;;;14.93;7.40;;;;;;;20.87;57.34;97085.03;127050;1095;62667;-76
2021/08/04 18:40:23;;;;;;;14.77;6.50;;;;;;;20.80;58.44;97089.13;126907;1095;62575;-80
2021/08/04 18:42:49;;;;;;;13.80;6.93;;;;;;;20.77;57.80;97097.84;127071;1095;62754;-80
2021/08/04 18:45:17;;;;;;;12.27;6.97;;;;;;;20.75;57.42;97098.37;126978;1095;63044;-81
2021/08/04 18:47:44;;;;;;;17.33;7.57;;;;;;;20.72;58.09;97099.41;126898;1094;62626;-81
2021/08/04 18:50:12;;;;;;;12.70;6.57;;;;;;;20.70;57.78;97099.16;126975;1095;63035;-80
2021/08/04 18:52:40;;;;;;;11.80;6.33;;;;;;;20.68;57.92;97104.54;126746;1095;62627;-76
2021/08/04 18:55:07;;;;;;;11.50;6.67;;;;;;;20.65;57.88;97105.58;127088;1095;62658;-77
2021/08/04 18:57:34;;;;;;;21.83;7.60;;;;;;;20.63;57.99;97093.28;127094;1093;62722;-75
2021/08/04 19:00:01;;;;;;;11.80;6.00;;;;;;;20.60;58.24;97092.28;126946;1095;62579;-76
2021/08/04 19:02:28;;;;;;;9.67;6.40;;;;;;;20.57;58.01;97098.94;126957;1095;62639;-75
2021/08/04 19:04:55;;;;;;;7.97;5.83;;;;;;;20.52;58.41;97096.91;126926;1095;62581;-77
2021/08/04 19:07:22;;;;;;;12.03;6.77;;;;;;;20.48;58.22;97102.05;126864;1095;62676;-76
2021/08/04 19:09:49;;;;;;;12.70;6.60;;;;;;;20.43;58.61;97094.37;126514;1095;62595;-76
2021/08/04 19:12:16;;;;;;;8.73;5.87;;;;;;;20.35;58.64;97099.73;126910;1095;62924;-75
2021/08/04 19:14:43;;;;;;;11.33;5.73;;;;;;;20.30;58.62;97099.75;126877;1095;63086;-77
2021/08/04 19:17:10;;;;;;;11.30;6.20;;;;;;;20.21;59.42;97101.55;127055;1095;62591;-75
2021/08/04 19:19:37;;;;;;;9.73;4.80;;;;;;;20.17;59.33;97103.85;127021;1095;62623;-76
2021/08/04 19:22:04;;;;;;;8.17;5.47;;;;;;;20.13;58.81;97106.16;126916;1095;63038;-75
2021/08/04 19:24:31;;;;;;;11.83;5.73;;;;;;;20.08;59.33;97109.72;126917;1095;62679;-76
2021/08/04 19:26:58;;;;;;;7.93;5.60;;;;;;;20.00;60.14;97107.95;127004;1095;62661;-78
2021/08/04 19:29:25;;;;;;;12.20;5.83;;;;;;;20.01;59.84;97104.63;127109;1095;62645;-75
2021/08/04 19:31:52;;;;;;;8.77;5.90;;;;;;;19.96;60.29;97104.64;127070;1093;62653;-76
2021/08/04 19:34:18;;;;;;;8.73;6.47;;;;;;;19.94;60.65;97115.63;127147;1095;62732;-75
2021/08/04 19:36:45;;;;;;;10.20;6.00;;;;;;;19.91;60.15;97120.20;127051;1093;62638;-75
2021/08/04 19:39:12;;;;;;;14.97;6.53;;;;;;;19.89;60.32;97109.48;126933;1095;62568;-75
2021/08/04 19:41:39;;;;;;;10.07;6.50;;;;;;;19.84;61.63;97115.88;126943;1095;62664;-75
2021/08/04 19:44:06;;;;;;;12.60;7.00;;;;;;;19.82;61.23;97112.05;126918;1093;62667;-75
2021/08/04 19:46:33;;;;;;;10.97;6.67;;;;;;;19.78;61.47;97115.11;126919;1095;62793;-75
2021/08/04 19:49:00;;;;;;;9.13;5.50;;;;;;;19.77;62.05;97110.00;127009;1095;62922;-75
2021/08/04 19:51:27;;;;;;;9.93;6.27;;;;;;;19.74;61.00;97105.38;127009;1095;62591;-75
2021/08/04 19:53:54;;;;;;;9.37;5.63;;;;;;;19.70;61.74;97107.69;126958;1095;62594;-75
2021/08/04 19:56:21;;;;;;;14.73;6.77;;;;;;;19.66;62.32;97112.80;126903;1095;62636;-75
2021/08/04 19:58:48;;;;;;;12.70;7.03;;;;;;;19.61;62.61;97112.28;127006;1095;62594;-76
2021/08/04 20:01:15;;;;;;;11.70;6.73;;;;;;;19.56;63.06;97107.41;126994;1095;62866;-75
2021/08/04 20:03:42;;;;;;;16.75;7.30;;;;;;;19.51;63.21;97107.38;127184;1095;62615;-75
2021/08/04 20:06:09;;;;;;;16.10;7.33;;;;;;;19.44;63.58;97108.66;127103;1093;62578;-74
2021/08/04 20:08:36;;;;;;;10.87;6.97;;;;;;;19.37;63.62;97100.72;126911;1095;62714;-75
2021/08/04 20:11:03;;;;;;;11.43;7.17;;;;;;;19.33;63.81;97103.01;127100;1095;62751;-78
2021/08/04 20:13:30;;;;;;;9.80;6.40;;;;;;;19.25;64.85;97104.79;127074;1095;62626;-74
2021/08/04 20:16:17;;;;;;;11.80;6.77;;;;;;;19.15;66.07;97103.47;126944;1095;62629;-75
2021/08/04 20:18:44;;;;;;;15.07;8.20;;;;;;;19.12;65.37;97096.07;126996;1095;62651;-75
2021/08/04 20:21:11;;;;;;;14.23;7.97;;;;;;;19.06;65.58;97098.10;127076;1093;62553;-75
2021/08/04 20:23:38;;;;;;;14.83;6.90;;;;;;;18.98;66.75;97101.38;127039;1095;62786;-74
2021/08/04 20:26:06;;;;;;;13.33;6.77;;;;;;;18.89;68.22;97101.61;126920;1095;62651;-74
2021/08/04 20:28:33;;;;;;;15.23;8.17;;;;;;;18.82;67.48;97093.66;126971;1095;62628;-75
2021/08/04 20:31:00;;;;;;;11.60;7.93;;;;;;;18.77;67.87;97100.03;126972;1095;62552;-75
2021/08/04 20:33:27;;;;;;;10.93;7.27;;;;;;;18.70;67.59;97097.71;126987;1095;62695;-76
2021/08/04 20:35:55;;;;;;;9.67;7.10;;;;;;;18.61;68.50;97083.86;126989;1095;62735;-76
2021/08/04 20:38:22;;;;;;;14.30;7.73;;;;;;;18.59;67.25;97092.02;127031;1095;62591;-75
2021/08/04 20:40:49;;;;;;;11.40;7.60;;;;;;;18.53;67.97;97082.81;126991;1095;62572;-74
2021/08/04 20:43:16;;;;;;;11.37;7.47;;;;;;;18.49;67.88;97088.66;126734;1095;62623;-75
2021/08/04 20:45:42;;;;;;;13.47;8.20;;;;;;;18.45;67.69;97087.34;126887;1095;62751;-75
2021/08/04 20:48:10;;;;;;;16.70;7.40;;;;;;;18.41;68.01;97087.58;126890;1095;62799;-74
2021/08/04 20:50:37;;;;;;;11.20;6.80;;;;;;;18.38;68.05;97080.19;126943;1093;62625;-75
2021/08/04 20:53:04;;;;;;;19.77;9.03;;;;;;;18.33;68.10;97081.70;127021;1093;62623;-74
2021/08/04 20:55:34;;;;;;;10.67;7.13;;;;;;;18.30;67.91;97079.87;126964;1095;62671;-74
2021/08/04 20:58:03;;;;;;;14.45;7.75;;;;;;;18.27;69.10;97077.30;127039;1095;62678;-75
2021/08/04 21:00:32;;;;;;;11.57;7.80;;;;;;;18.25;68.29;97079.84;126945;1094;62643;-75
2021/08/04 21:03:00;;;;;;;10.87;7.07;;;;;;;18.19;69.09;97082.63;126978;1095;62623;-74
2021/08/04 21:05:27;;;;;;;12.93;7.97;;;;;;;18.16;69.33;97078.02;126970;1094;62591;-75
2021/08/04 21:07:59;;;;;;;15.60;8.07;;;;;;;18.10;69.82;97077.20;127005;1095;62686;-78
2021/08/04 21:10:26;;;;;;;13.33;7.73;;;;;;;18.03;69.79;97074.87;126969;1095;62623;-78
2021/08/04 21:12:54;;;;;;;14.10;7.13;;;;;;;17.98;70.21;97084.02;127136;1095;62578;-78
2021/08/04 21:15:22;;;;;;;11.93;6.97;;;;;;;17.90;70.06;97078.08;127084;1095;62623;-79
2021/08/04 21:17:49;;;;;;;11.20;6.67;;;;;;;17.86;70.46;97080.34;126908;1093;62631;-78
2021/08/04 21:20:16;;;;;;;13.03;7.57;;;;;;;17.81;70.56;97076.25;126882;1094;62696;-78
2021/08/04 21:22:44;;;;;;;11.90;7.37;;;;;;;17.76;71.11;97067.78;126922;1095;62722;-78
2021/08/04 21:25:11;;;;;;;9.73;6.77;;;;;;;17.67;71.04;97077.12;126994;1095;63089;-77
2021/08/04 21:27:38;;;;;;;12.93;6.70;;;;;;;17.65;71.23;97078.88;126904;1093;62568;-73
2021/08/04 21:30:05;;;;;;;11.90;7.07;;;;;;;17.61;71.20;97083.94;126998;1095;63063;-76
2021/08/04 21:32:33;;;;;;;12.27;7.00;;;;;;;17.53;72.14;97087.17;126886;1095;62631;-77
2021/08/04 21:35:00;;;;;;;7.77;5.90;;;;;;;17.48;72.39;97081.53;126988;1095;62766;-73
2021/08/04 21:37:27;;;;;;;13.47;7.03;;;;;;;17.43;72.77;97088.63;126970;1095;62552;-79
2021/08/04 21:39:54;;;;;;;11.10;7.17;;;;;;;17.40;72.90;97086.79;126950;1095;62663;-78
2021/08/04 21:42:20;;;;;;;12.77;7.20;;;;;;;17.37;73.42;97092.61;127020;1095;62701;-77
2021/08/04 21:44:47;;;;;;;10.17;6.67;;;;;;;17.34;73.64;97090.80;127047;1095;62936;-79
2021/08/04 21:47:14;;;;;;;12.83;7.33;;;;;;;17.31;73.54;97089.77;127094;1093;62674;-79
2021/08/04 21:49:41;;;;;;;13.20;7.40;;;;;;;17.29;73.23;97094.33;127130;1095;62723;-79
2021/08/04 21:52:08;;;;;;;11.53;7.30;;;;;;;17.28;73.29;97092.80;127104;1095;62575;-77
2021/08/04 21:54:35;;;;;;;12.50;8.53;;;;;;;17.24;74.03;97084.63;127100;1095;62568;-77